Development Driller2 — YJUL9 — position and weather

sailwx.info

Track history (hours):
 
Tides and Currents Weather Stations Pressure Air Temp Water Temp Dewpoint Dewpoint Depression Visibility Wind Speed Wind Dir Waves Ship Positions

Development Driller2

Last reported at 2014-Sep-06 05:33 UTC. Time now 2014-Oct-01 18:17 UTC.
Position N 40°58' E 028°59'.
Warning: this ship's position is 25 days out of date.

Length 116 m; draft 14 m.

Type: Other ship. MMSI: 576971000.

Date/timePositionNaut miles runAvg speedWind from/ knotsBaromVisibWave heightAir tempDewpointWater temp
2014-Sep-06 05:33N 40°58' E 028°59'0 0.0
2014-Sep-06 04:32N 40°58' E 028°59'0 0.0
2014-Sep-06 03:33N 40°58' E 028°59'2 2.2
2014-Sep-06 02:33N 40°56' E 028°58'4 3.6
2014-Sep-06 01:31N 40°53' E 028°56'1 0.6
2014-Sep-06 00:33N 40°52' E 028°56'0 0.0
2014-Sep-05 23:33N 40°52' E 028°56'0 0.0
2014-Sep-05 22:33N 40°52' E 028°56'0 0.0
2014-Sep-05 21:14N 40°52' E 028°56'0 0.0
2014-Sep-05 20:32N 40°52' E 028°56'0 0.0
2014-Sep-05 19:33N 40°52' E 028°56'0 0.0
2014-Sep-05 18:33N 40°52' E 028°56'0 0.0
2014-Sep-05 17:33N 40°52' E 028°56'0 0.0
2014-Sep-05 16:33N 40°52' E 028°56'0 0.0
2014-Sep-05 15:33N 40°52' E 028°56'0 0.0
2014-Sep-05 14:33N 40°52' E 028°56'0 0.0
2014-Sep-05 13:33N 40°52' E 028°56'0 0.0
2014-Sep-05 12:33N 40°52' E 028°56'0 0.0
2014-Sep-05 11:33N 40°52' E 028°56'0 0.0
2014-Sep-05 10:33N 40°52' E 028°56'0 0.0
2014-Sep-04 16:33N 40°52' E 028°56'0 0.0
2014-Sep-04 14:31N 40°52' E 028°56'0 0.0
2014-Sep-04 12:30N 40°52' E 028°56'0 0.0
2014-Sep-04 11:27N 40°52' E 028°56'0 0.0
2014-Sep-04 10:32N 40°52' E 028°56'0 0.0
2014-Sep-04 09:33N 40°52' E 028°56'0 0.0
2014-Sep-04 08:28N 40°52' E 028°56'0 0.0
2014-Sep-04 07:32N 40°52' E 028°56'0 0.0
2014-Sep-04 06:31N 40°52' E 028°56'0 0.3
2014-Sep-04 05:33N 40°52' E 028°56'0 0.0
2014-Sep-04 00:11N 40°52' E 028°56'0 0.0
2014-Sep-03 23:31N 40°52' E 028°56'1 0.4
2014-Sep-03 19:31N 40°51' E 028°54'0 0.0
2014-Sep-03 18:29N 40°51' E 028°54'0 0.3
2014-Sep-03 17:33N 40°52' E 028°54'0 0.5
2014-Sep-03 16:33N 40°52' E 028°54'0 0.0
2014-Sep-03 15:30N 40°52' E 028°54'0 0.0
2014-Sep-03 14:32N 40°52' E 028°54'0 0.1
2014-Sep-03 13:23N 40°52' E 028°54'1 0.8
2014-Sep-03 12:33N 40°53' E 028°55'3 1.0
2014-Sep-03 09:05N 40°55' E 028°58'1 1.3
2014-Sep-03 08:27N 40°55' E 028°57'3 3.0
2014-Sep-03 07:33N 40°54' E 028°54'4 3.6
2014-Sep-03 06:33N 40°52' E 028°50'3 3.2
2014-Sep-03 05:32N 40°50' E 028°46'4 4.3
2014-Sep-03 04:32N 40°49' E 028°41'149 4.3
2014-Sep-01 17:30N 39°48' E 025°43'2 2.3
2014-Sep-01 16:26N 39°46' E 025°41'159 4.0
2014-Aug-31 01:04N 37°13' E 024°44'2 4.7
2014-Aug-31 00:33N 37°11' E 024°44'95 3.4
2014-Aug-29 20:18N 36°08' E 023°15'  
Track history (hours):
 
Tides and Currents Weather Stations Pressure Air Temp Water Temp Dewpoint Dewpoint Depression Visibility Wind Speed Wind Dir Waves Ship Positions

Development Driller2

Last reported at 2014-Sep-06 05:33 UTC. Time now 2014-Oct-01 18:17 UTC.
Position N 40°58' E 028°59'.
Warning: this ship's position is 25 days out of date.

Length 116 m; draft 14 m.

Type: Other ship. MMSI: 576971000.

Date/timePositionNaut miles runAvg speedWind from/ knotsBaromVisibWave heightAir tempDewpointWater temp
2014-Sep-06 05:33N 40°58' E 028°59'0 0.0
2014-Sep-06 04:32N 40°58' E 028°59'0 0.0
2014-Sep-06 03:33N 40°58' E 028°59'2 2.2
2014-Sep-06 02:33N 40°56' E 028°58'4 3.6
2014-Sep-06 01:31N 40°53' E 028°56'1 0.6
2014-Sep-06 00:33N 40°52' E 028°56'0 0.0
2014-Sep-05 23:33N 40°52' E 028°56'0 0.0
2014-Sep-05 22:33N 40°52' E 028°56'0 0.0
2014-Sep-05 21:14N 40°52' E 028°56'0 0.0
2014-Sep-05 20:32N 40°52' E 028°56'0 0.0
2014-Sep-05 19:33N 40°52' E 028°56'0 0.0
2014-Sep-05 18:33N 40°52' E 028°56'0 0.0
2014-Sep-05 17:33N 40°52' E 028°56'0 0.0
2014-Sep-05 16:33N 40°52' E 028°56'0 0.0
2014-Sep-05 15:33N 40°52' E 028°56'0 0.0
2014-Sep-05 14:33N 40°52' E 028°56'0 0.0
2014-Sep-05 13:33N 40°52' E 028°56'0 0.0
2014-Sep-05 12:33N 40°52' E 028°56'0 0.0
2014-Sep-05 11:33N 40°52' E 028°56'0 0.0
2014-Sep-05 10:33N 40°52' E 028°56'0 0.0
2014-Sep-04 16:33N 40°52' E 028°56'0 0.0
2014-Sep-04 14:31N 40°52' E 028°56'0 0.0
2014-Sep-04 12:30N 40°52' E 028°56'0 0.0
2014-Sep-04 11:27N 40°52' E 028°56'0 0.0
2014-Sep-04 10:32N 40°52' E 028°56'0 0.0
2014-Sep-04 09:33N 40°52' E 028°56'0 0.0
2014-Sep-04 08:28N 40°52' E 028°56'0 0.0
2014-Sep-04 07:32N 40°52' E 028°56'0 0.0
2014-Sep-04 06:31N 40°52' E 028°56'0 0.3
2014-Sep-04 05:33N 40°52' E 028°56'0 0.0
2014-Sep-04 00:11N 40°52' E 028°56'0 0.0
2014-Sep-03 23:31N 40°52' E 028°56'1 0.4
2014-Sep-03 19:31N 40°51' E 028°54'0 0.0
2014-Sep-03 18:29N 40°51' E 028°54'0 0.3
2014-Sep-03 17:33N 40°52' E 028°54'0 0.5
2014-Sep-03 16:33N 40°52' E 028°54'0 0.0
2014-Sep-03 15:30N 40°52' E 028°54'0 0.0
2014-Sep-03 14:32N 40°52' E 028°54'0 0.1
2014-Sep-03 13:23N 40°52' E 028°54'1 0.8
2014-Sep-03 12:33N 40°53' E 028°55'3 1.0
2014-Sep-03 09:05N 40°55' E 028°58'1 1.3
2014-Sep-03 08:27N 40°55' E 028°57'3 3.0
2014-Sep-03 07:33N 40°54' E 028°54'4 3.6
2014-Sep-03 06:33N 40°52' E 028°50'3 3.2
2014-Sep-03 05:32N 40°50' E 028°46'4 4.3
2014-Sep-03 04:32N 40°49' E 028°41'149 4.3
2014-Sep-01 17:30N 39°48' E 025°43'2 2.3
2014-Sep-01 16:26N 39°46' E 025°41'159 4.0
2014-Aug-31 01:04N 37°13' E 024°44'2 4.7
2014-Aug-31 00:33N 37°11' E 024°44'95 3.4
2014-Aug-29 20:18N 36°08' E 023°15'  

Dump ship's entire track history